Terminal Aerodrome Forecast
Issued by NWS Omaha/Valley, NE

Home | Current Version | Previous Version | Text Only | Print | Product List | Glossary Off
Versions: 1 2 3 4 5 6 7 8 9 10 11 12 13 14 15 16 17 18 19 20 21 22 23 24 25 26 27 28 29 30 31 32

000
FTUS43 KOAX 312243 AAB
TAFOFK
TAF AMD
KOFK 312243Z 3123/0118 14011KT P6SM VCTS BKN050CB
     FM010100 14006KT P6SM SCT050 SCT100
     FM010900 VRB03KT P6SM SCT250
      TEMPO 0110/0113 5SM BR=

USA.gov is the U.S. government's official web portal to all federal, state and local government web resources and services.